sensor_id;sensor_type;location;lat;lon;timestamp;pressure;altitude;pressure_sealevel;temperature;humidity
75455;BME280;64035;48.358;2.122;2023-02-28T00:00:34;101722.69;;;1.96;59.82
75455;BME280;64035;48.358;2.122;2023-02-28T00:01:38;101726.09;;;1.96;59.57
75455;BME280;64035;48.358;2.122;2023-02-28T00:02:43;101716.44;;;1.92;58.95
75455;BME280;64035;48.358;2.122;2023-02-28T00:03:46;101724.00;;;1.92;59.69
75455;BME280;64035;48.358;2.122;2023-02-28T00:04:49;101717.56;;;1.87;59.10
75455;BME280;64035;48.358;2.122;2023-02-28T00:05:55;101717.56;;;1.87;59.47
75455;BME280;64035;48.358;2.122;2023-02-28T00:06:58;101729.34;;;1.87;59.34
75455;BME280;64035;48.358;2.122;2023-02-28T00:08:01;101723.97;;;1.84;59.77
75455;BME280;64035;48.358;2.122;2023-02-28T00:09:04;101725.75;;;1.85;60.13
75455;BME280;64035;48.358;2.122;2023-02-28T00:10:09;101725.00;;;1.86;60.00
75455;BME280;64035;48.358;2.122;2023-02-28T00:11:15;101729.34;;;1.87;59.76
75455;BME280;64035;48.358;2.122;2023-02-28T00:12:19;101723.69;;;1.89;59.75
75455;BME280;64035;48.358;2.122;2023-02-28T00:13:21;101725.47;;;1.90;59.77
75455;BME280;64035;48.358;2.122;2023-02-28T00:14:24;101728.00;;;1.90;59.40
75455;BME280;64035;48.358;2.122;2023-02-28T00:15:27;101724.59;;;1.90;59.24
75455;BME280;64035;48.358;2.122;2023-02-28T00:16:31;101721.16;;;1.89;59.29
75455;BME280;64035;48.358;2.122;2023-02-28T00:17:33;101729.47;;;1.88;58.96
75455;BME280;64035;48.358;2.122;2023-02-28T00:18:37;101728.00;;;1.90;59.49
75455;BME280;64035;48.358;2.122;2023-02-28T00:19:40;101729.78;;;1.91;59.27
75455;BME280;64035;48.358;2.122;2023-02-28T00:20:43;101731.41;;;1.91;59.64
75455;BME280;64035;48.358;2.122;2023-02-28T00:21:46;101725.81;;;1.93;59.07
75455;BME280;64035;48.358;2.122;2023-02-28T00:22:52;101728.00;;;1.90;59.29
75455;BME280;64035;48.358;2.122;2023-02-28T00:23:55;101733.78;;;1.89;58.98
75455;BME280;64035;48.358;2.122;2023-02-28T00:24:58;101730.19;;;1.87;59.24
75455;BME280;64035;48.358;2.122;2023-02-28T00:26:01;101731.09;;;1.88;59.30
75455;BME280;64035;48.358;2.122;2023-02-28T00:27:05;101731.84;;;1.87;59.18
75455;BME280;64035;48.358;2.122;2023-02-28T00:28:08;101732.72;;;1.87;58.84
75455;BME280;64035;48.358;2.122;2023-02-28T00:29:11;101728.09;;;1.83;59.43
75455;BME280;64035;48.358;2.122;2023-02-28T00:30:17;101735.69;;;1.83;59.35
75455;BME280;64035;48.358;2.122;2023-02-28T00:31:20;101734.63;;;1.81;59.94
75455;BME280;64035;48.358;2.122;2023-02-28T00:32:24;101738.03;;;1.82;59.45
75455;BME280;64035;48.358;2.122;2023-02-28T00:33:28;101729.56;;;1.81;59.26
75455;BME280;64035;48.358;2.122;2023-02-28T00:34:31;101737.75;;;1.79;59.43
75455;BME280;64035;48.358;2.122;2023-02-28T00:35:34;101742.78;;;1.79;59.94
75455;BME280;64035;48.358;2.122;2023-02-28T00:36:37;101736.84;;;1.78;59.72
75455;BME280;64035;48.358;2.122;2023-02-28T00:37:41;101730.75;;;1.76;59.89
75455;BME280;64035;48.358;2.122;2023-02-28T00:38:45;101735.78;;;1.76;59.58
75455;BME280;64035;48.358;2.122;2023-02-28T00:39:48;101738.88;;;1.74;58.98
75455;BME280;64035;48.358;2.122;2023-02-28T00:40:52;101739.03;;;1.75;59.57
75455;BME280;64035;48.358;2.122;2023-02-28T00:41:56;101744.09;;;1.75;59.55
75455;BME280;64035;48.358;2.122;2023-02-28T00:42:58;101738.75;;;1.72;59.69
75455;BME280;64035;48.358;2.122;2023-02-28T00:44:02;101740.94;;;1.69;59.24
75455;BME280;64035;48.358;2.122;2023-02-28T00:45:06;101743.47;;;1.69;59.62
75455;BME280;64035;48.358;2.122;2023-02-28T00:46:08;101749.25;;;1.68;59.84
75455;BME280;64035;48.358;2.122;2023-02-28T00:47:11;101750.69;;;1.66;59.38
75455;BME280;64035;48.358;2.122;2023-02-28T00:48:15;101747.16;;;1.64;59.97
75455;BME280;64035;48.358;2.122;2023-02-28T00:49:19;101752.34;;;1.66;59.79
75455;BME280;64035;48.358;2.122;2023-02-28T00:50:22;101755.63;;;1.65;59.83
75455;BME280;64035;48.358;2.122;2023-02-28T00:51:25;101751.84;;;1.61;59.70
75455;BME280;64035;48.358;2.122;2023-02-28T00:52:28;101760.31;;;1.62;60.21
75455;BME280;64035;48.358;2.122;2023-02-28T00:53:31;101747.06;;;1.55;59.81
75455;BME280;64035;48.358;2.122;2023-02-28T00:54:35;101758.78;;;1.55;60.18
75455;BME280;64035;48.358;2.122;2023-02-28T00:55:38;101757.34;;;1.57;60.61
75455;BME280;64035;48.358;2.122;2023-02-28T00:56:40;101763.84;;;1.55;60.64
75455;BME280;64035;48.358;2.122;2023-02-28T00:57:43;101755.94;;;1.52;59.98
75455;BME280;64035;48.358;2.122;2023-02-28T00:58:47;101758.16;;;1.49;59.99
75455;BME280;64035;48.358;2.122;2023-02-28T00:59:50;101763.94;;;1.48;60.14
75455;BME280;64035;48.358;2.122;2023-02-28T01:00:53;101767.75;;;1.44;60.70
75455;BME280;64035;48.358;2.122;2023-02-28T01:01:56;101767.75;;;1.44;60.71
75455;BME280;64035;48.358;2.122;2023-02-28T01:03:00;101775.19;;;1.43;60.99
75455;BME280;64035;48.358;2.122;2023-02-28T01:04:03;101769.25;;;1.42;60.82
75455;BME280;64035;48.358;2.122;2023-02-28T01:05:06;101774.44;;;1.44;61.09
75455;BME280;64035;48.358;2.122;2023-02-28T01:06:10;101765.81;;;1.42;61.00
75455;BME280;64035;48.358;2.122;2023-02-28T01:07:15;101762.22;;;1.40;60.68
75455;BME280;64035;48.358;2.122;2023-02-28T01:08:18;101777.53;;;1.41;61.27
75455;BME280;64035;48.358;2.122;2023-02-28T01:09:21;101769.06;;;1.41;61.00
75455;BME280;64035;48.358;2.122;2023-02-28T01:10:25;101767.28;;;1.40;60.88
75455;BME280;64035;48.358;2.122;2023-02-28T01:11:28;101770.53;;;1.39;61.60
75455;BME280;64035;48.358;2.122;2023-02-28T01:12:31;101764.44;;;1.37;62.26
75455;BME280;64035;48.358;2.122;2023-02-28T01:13:33;101768.44;;;1.35;61.42
75455;BME280;64035;48.358;2.122;2023-02-28T01:14:36;101769.88;;;1.33;61.95
75455;BME280;64035;48.358;2.122;2023-02-28T01:15:43;101769.72;;;1.31;61.62
75455;BME280;64035;48.358;2.122;2023-02-28T01:16:48;101767.19;;;1.31;61.40
75455;BME280;64035;48.358;2.122;2023-02-28T01:17:51;101768.50;;;1.28;61.46
75455;BME280;64035;48.358;2.122;2023-02-28T01:18:54;101773.38;;;1.26;61.76
75455;BME280;64035;48.358;2.122;2023-02-28T01:19:57;101765.34;;;1.22;62.11
75455;BME280;64035;48.358;2.122;2023-02-28T01:21:21;101768.78;;;1.22;61.94
75455;BME280;64035;48.358;2.122;2023-02-28T01:22:24;101765.81;;;1.26;62.10
75455;BME280;64035;48.358;2.122;2023-02-28T01:23:27;101768.78;;;1.22;62.21
75455;BME280;64035;48.358;2.122;2023-02-28T01:24:30;101767.28;;;1.24;61.70
75455;BME280;64035;48.358;2.122;2023-02-28T01:25:36;101769.81;;;1.24;62.19
75455;BME280;64035;48.358;2.122;2023-02-28T01:26:41;101763.72;;;1.22;62.03
75455;BME280;64035;48.358;2.122;2023-02-28T01:27:44;101760.44;;;1.23;61.71
75455;BME280;64035;48.358;2.122;2023-02-28T01:28:49;101770.31;;;1.29;61.63
75455;BME280;64035;48.358;2.122;2023-02-28T01:29:53;101774.13;;;1.25;61.36
75455;BME280;64035;48.358;2.122;2023-02-28T01:30:56;101772.16;;;1.23;61.97
75455;BME280;64035;48.358;2.122;2023-02-28T01:31:59;101776.47;;;1.24;62.90
75455;BME280;64035;48.358;2.122;2023-02-28T01:33:02;101779.59;;;1.21;62.76
75455;BME280;64035;48.358;2.122;2023-02-28T01:34:05;101774.53;;;1.21;62.29
75455;BME280;64035;48.358;2.122;2023-02-28T01:35:08;101775.81;;;1.17;61.63
75455;BME280;64035;48.358;2.122;2023-02-28T01:36:14;101776.41;;;1.15;61.89
75455;BME280;64035;48.358;2.122;2023-02-28T01:37:18;101776.81;;;1.11;62.05
75455;BME280;64035;48.358;2.122;2023-02-28T01:38:21;101779.56;;;1.05;62.67
75455;BME280;64035;48.358;2.122;2023-02-28T01:39:26;101770.94;;;1.03;62.54
75455;BME280;64035;48.358;2.122;2023-02-28T01:40:29;101772.75;;;1.04;63.45
75455;BME280;64035;48.358;2.122;2023-02-28T01:41:34;101773.47;;;1.03;63.00
75455;BME280;64035;48.358;2.122;2023-02-28T01:42:37;101766.63;;;1.02;63.38
75455;BME280;64035;48.358;2.122;2023-02-28T01:45:29;101770.78;;;1.02;62.98
75455;BME280;64035;48.358;2.122;2023-02-28T01:46:35;101767.78;;;0.97;63.18
75455;BME280;64035;48.358;2.122;2023-02-28T01:47:42;101768.84;;;0.99;63.87
75455;BME280;64035;48.358;2.122;2023-02-28T01:49:13;101765.25;;;0.97;63.09
75455;BME280;64035;48.358;2.122;2023-02-28T01:50:20;101771.91;;;0.97;63.86
75455;BME280;64035;48.358;2.122;2023-02-28T01:51:30;101766.31;;;0.99;63.70
75455;BME280;64035;48.358;2.122;2023-02-28T01:52:34;101761.84;;;0.97;62.99
75455;BME280;64035;48.358;2.122;2023-02-28T01:53:42;101765.09;;;0.96;63.22
75455;BME280;64035;48.358;2.122;2023-02-28T01:54:51;101769.56;;;0.98;63.81
75455;BME280;64035;48.358;2.122;2023-02-28T01:55:55;101766.72;;;0.95;63.53
75455;BME280;64035;48.358;2.122;2023-02-28T01:57:04;101766.53;;;0.94;63.23
75455;BME280;64035;48.358;2.122;2023-02-28T01:58:09;101768.19;;;0.93;63.69
75455;BME280;64035;48.358;2.122;2023-02-28T01:59:19;101769.47;;;0.90;63.47
75455;BME280;64035;48.358;2.122;2023-02-28T02:00:25;101769.31;;;0.88;63.79
75455;BME280;64035;48.358;2.122;2023-02-28T02:01:30;101768.41;;;0.88;63.81
75455;BME280;64035;48.358;2.122;2023-02-28T02:02:34;101769.47;;;0.90;63.88
75455;BME280;64035;48.358;2.122;2023-02-28T02:03:39;101763.88;;;0.92;64.65
75455;BME280;64035;48.358;2.122;2023-02-28T02:04:49;101764.78;;;0.93;63.54
75455;BME280;64035;48.358;2.122;2023-02-28T02:05:53;101765.81;;;0.95;63.83
75455;BME280;64035;48.358;2.122;2023-02-28T02:06:58;101769.22;;;0.95;63.59
75455;BME280;64035;48.358;2.122;2023-02-28T02:08:05;101766.72;;;0.95;63.53
75455;BME280;64035;48.358;2.122;2023-02-28T02:09:09;101768.50;;;0.96;63.91
75455;BME280;64035;48.358;2.122;2023-02-28T02:10:33;101763.63;;;0.98;63.52
75455;BME280;64035;48.358;2.122;2023-02-28T02:11:37;101760.38;;;0.99;63.55
75455;BME280;64035;48.358;2.122;2023-02-28T02:14:30;101763.38;;;1.03;62.61
75455;BME280;64035;48.358;2.122;2023-02-28T02:15:45;101763.38;;;1.03;63.04
75455;BME280;64035;48.358;2.122;2023-02-28T02:17:04;101760.84;;;1.03;63.12
75455;BME280;64035;48.358;2.122;2023-02-28T02:21:42;101761.94;;;1.05;63.55
75455;BME280;64035;48.358;2.122;2023-02-28T02:23:54;101760.84;;;1.03;63.02
75455;BME280;64035;48.358;2.122;2023-02-28T02:25:17;101755.66;;;1.02;63.13
75455;BME280;64035;48.358;2.122;2023-02-28T02:34:28;101749.78;;;0.94;62.44
75455;BME280;64035;48.358;2.122;2023-02-28T02:38:35;101745.34;;;0.92;63.26
75455;BME280;64035;48.358;2.122;2023-02-28T02:42:31;101749.78;;;0.94;63.41
75455;BME280;64035;48.358;2.122;2023-02-28T02:44:52;101746.38;;;0.94;62.48
75455;BME280;64035;48.358;2.122;2023-02-28T02:46:06;101748.03;;;0.93;62.80
75455;BME280;64035;48.358;2.122;2023-02-28T02:47:15;101753.78;;;0.92;63.31
75455;BME280;64035;48.358;2.122;2023-02-28T02:48:22;101745.50;;;0.93;63.14
75455;BME280;64035;48.358;2.122;2023-02-28T02:49:31;101745.34;;;0.92;63.35
75455;BME280;64035;48.358;2.122;2023-02-28T02:50:45;101741.41;;;0.87;63.37
75455;BME280;64035;48.358;2.122;2023-02-28T02:51:52;101746.31;;;0.85;63.00
75455;BME280;64035;48.358;2.122;2023-02-28T02:52:59;101750.63;;;0.86;63.71
75455;BME280;64035;48.358;2.122;2023-02-28T02:54:08;101748.09;;;0.86;64.16
75455;BME280;64035;48.358;2.122;2023-02-28T02:55:17;101746.88;;;0.83;63.26
75455;BME280;64035;48.358;2.122;2023-02-28T02:56:27;101742.56;;;0.82;63.01
75455;BME280;64035;48.358;2.122;2023-02-28T02:57:38;101738.81;;;0.78;63.78
75455;BME280;64035;48.358;2.122;2023-02-28T02:58:44;101739.56;;;0.77;63.97
75455;BME280;64035;48.358;2.122;2023-02-28T02:59:50;101741.91;;;0.75;63.77
75455;BME280;64035;48.358;2.122;2023-02-28T03:00:58;101732.88;;;0.77;63.44
75455;BME280;64035;48.358;2.122;2023-02-28T03:02:04;101733.06;;;0.79;63.76
75455;BME280;64035;48.358;2.122;2023-02-28T03:03:10;101735.41;;;0.77;63.34
75455;BME280;64035;48.358;2.122;2023-02-28T03:04:17;101734.69;;;0.78;63.21
75455;BME280;64035;48.358;2.122;2023-02-28T03:05:42;101726.38;;;0.79;63.59
75455;BME280;64035;48.358;2.122;2023-02-28T03:06:50;101732.72;;;0.76;63.74
75455;BME280;64035;48.358;2.122;2023-02-28T03:07:58;101743.44;;;0.82;63.58
75455;BME280;64035;48.358;2.122;2023-02-28T03:09:02;101743.28;;;0.81;63.22
75455;BME280;64035;48.358;2.122;2023-02-28T03:10:37;101739.31;;;0.83;64.14
75455;BME280;64035;48.358;2.122;2023-02-28T03:11:41;101737.94;;;0.77;63.43
75455;BME280;64035;48.358;2.122;2023-02-28T03:12:53;101746.38;;;0.78;62.99
75455;BME280;64035;48.358;2.122;2023-02-28T03:14:25;101743.69;;;0.76;63.17
75455;BME280;64035;48.358;2.122;2023-02-28T03:18:40;101748.00;;;0.77;63.80
75455;BME280;64035;48.358;2.122;2023-02-28T03:19:55;101752.88;;;0.76;63.89
75455;BME280;64035;48.358;2.122;2023-02-28T03:22:33;101749.47;;;0.75;63.24
75455;BME280;64035;48.358;2.122;2023-02-28T03:23:50;101745.16;;;0.74;63.44
75455;BME280;64035;48.358;2.122;2023-02-28T03:26:17;101741.00;;;0.75;63.54
75455;BME280;64035;48.358;2.122;2023-02-28T03:27:27;101743.22;;;0.72;63.60
75455;BME280;64035;48.358;2.122;2023-02-28T03:28:47;101735.66;;;0.72;63.31
75455;BME280;64035;48.358;2.122;2023-02-28T03:31:41;101742.31;;;0.71;63.36
75455;BME280;64035;48.358;2.122;2023-02-28T03:33:00;101746.47;;;0.71;64.64
75455;BME280;64035;48.358;2.122;2023-02-28T03:34:22;101739.78;;;0.71;65.26
75455;BME280;64035;48.358;2.122;2023-02-28T03:35:36;101744.84;;;0.71;65.08
75455;BME280;64035;48.358;2.122;2023-02-28T03:36:49;101744.66;;;0.70;63.83
75455;BME280;64035;48.358;2.122;2023-02-28T03:38:05;101744.66;;;0.70;64.75
75455;BME280;64035;48.358;2.122;2023-02-28T03:39:18;101740.34;;;0.69;64.99
75455;BME280;64035;48.358;2.122;2023-02-28T03:40:25;101732.78;;;0.69;64.41
75455;BME280;64035;48.358;2.122;2023-02-28T03:42:50;101742.53;;;0.66;64.24
75455;BME280;64035;48.358;2.122;2023-02-28T03:44:05;101745.22;;;0.67;63.88
75455;BME280;64035;48.358;2.122;2023-02-28T03:45:13;101749.34;;;0.67;64.26
75455;BME280;64035;48.358;2.122;2023-02-28T03:46:21;101742.38;;;0.64;64.18
75455;BME280;64035;48.358;2.122;2023-02-28T03:47:32;101737.19;;;0.63;64.15
75455;BME280;64035;48.358;2.122;2023-02-28T03:48:46;101741.50;;;0.64;64.42
75455;BME280;64035;48.358;2.122;2023-02-28T03:49:55;101742.22;;;0.63;64.90
75455;BME280;64035;48.358;2.122;2023-02-28T03:51:02;101738.63;;;0.61;65.11
75455;BME280;64035;48.358;2.122;2023-02-28T03:52:07;101741.88;;;0.60;64.20
75455;BME280;64035;48.358;2.122;2023-02-28T03:53:25;101746.00;;;0.59;64.27
75455;BME280;64035;48.358;2.122;2023-02-28T03:54:32;101749.13;;;0.57;64.26
75455;BME280;64035;48.358;2.122;2023-02-28T03:56:11;101748.34;;;0.58;64.22
75455;BME280;64035;48.358;2.122;2023-02-28T03:57:22;101746.59;;;0.57;64.24
75455;BME280;64035;48.358;2.122;2023-02-28T03:58:44;101744.81;;;0.56;64.45
75455;BME280;64035;48.358;2.122;2023-02-28T03:59:56;101753.97;;;0.55;63.88
75455;BME280;64035;48.358;2.122;2023-02-28T04:01:07;101755.06;;;0.57;63.86
75455;BME280;64035;48.358;2.122;2023-02-28T04:02:11;101751.28;;;0.54;65.11
75455;BME280;64035;48.358;2.122;2023-02-28T04:03:15;101753.97;;;0.55;65.53
75455;BME280;64035;48.358;2.122;2023-02-28T04:04:18;101754.72;;;0.54;65.11
75455;BME280;64035;48.358;2.122;2023-02-28T04:05:22;101754.72;;;0.54;64.29
75455;BME280;64035;48.358;2.122;2023-02-28T04:06:25;101749.66;;;0.54;63.96
75455;BME280;64035;48.358;2.122;2023-02-28T04:07:29;101754.53;;;0.53;64.10
75455;BME280;64035;48.358;2.122;2023-02-28T04:08:32;101751.28;;;0.54;64.88
75455;BME280;64035;48.358;2.122;2023-02-28T04:09:35;101751.13;;;0.52;65.52
75455;BME280;64035;48.358;2.122;2023-02-28T04:10:38;101751.13;;;0.52;65.35
75455;BME280;64035;48.358;2.122;2023-02-28T04:11:52;101743.38;;;0.51;65.15
75455;BME280;64035;48.358;2.122;2023-02-28T04:12:55;101746.66;;;0.50;65.48
75455;BME280;64035;48.358;2.122;2023-02-28T04:13:58;101747.56;;;0.50;65.18
75455;BME280;64035;48.358;2.122;2023-02-28T04:15:01;101742.34;;;0.49;65.57
75455;BME280;64035;48.358;2.122;2023-02-28T04:16:07;101743.25;;;0.49;65.06
75455;BME280;64035;48.358;2.122;2023-02-28T04:17:15;101749.19;;;0.50;65.79
75455;BME280;64035;48.358;2.122;2023-02-28T04:18:18;101741.47;;;0.48;64.40
75455;BME280;64035;48.358;2.122;2023-02-28T04:19:21;101738.94;;;0.48;65.87
75455;BME280;64035;48.358;2.122;2023-02-28T04:20:25;101739.84;;;0.49;65.38
75455;BME280;64035;48.358;2.122;2023-02-28T04:21:33;101742.00;;;0.46;64.92
75455;BME280;64035;48.358;2.122;2023-02-28T04:22:36;101743.81;;;0.47;65.42
75455;BME280;64035;48.358;2.122;2023-02-28T04:23:40;101740.38;;;0.46;64.70
75455;BME280;64035;48.358;2.122;2023-02-28T04:24:43;101743.44;;;0.44;64.58
75455;BME280;64035;48.358;2.122;2023-02-28T04:25:46;101751.00;;;0.44;65.23
75455;BME280;64035;48.358;2.122;2023-02-28T04:26:51;101765.41;;;0.45;64.19
75455;BME280;64035;48.358;2.122;2023-02-28T04:27:54;101755.91;;;0.42;64.40
75455;BME280;64035;48.358;2.122;2023-02-28T04:28:58;101755.91;;;0.42;64.73
75455;BME280;64035;48.358;2.122;2023-02-28T04:30:01;101755.72;;;0.41;64.89
75455;BME280;64035;48.358;2.122;2023-02-28T04:31:05;101758.44;;;0.42;64.28
75455;BME280;64035;48.358;2.122;2023-02-28T04:32:08;101756.44;;;0.39;64.93
75455;BME280;64035;48.358;2.122;2023-02-28T04:33:11;101762.22;;;0.38;64.60
75455;BME280;64035;48.358;2.122;2023-02-28T04:34:15;101760.59;;;0.39;65.44
75455;BME280;64035;48.358;2.122;2023-02-28T04:35:18;101756.09;;;0.36;64.86
75455;BME280;64035;48.358;2.122;2023-02-28T04:36:21;101755.38;;;0.37;65.02
75455;BME280;64035;48.358;2.122;2023-02-28T04:37:26;101758.63;;;0.36;65.00
75455;BME280;64035;48.358;2.122;2023-02-28T04:38:36;101761.16;;;0.36;64.31
75455;BME280;64035;48.358;2.122;2023-02-28T04:39:40;101764.41;;;0.35;63.48
75455;BME280;64035;48.358;2.122;2023-02-28T04:40:43;101762.63;;;0.34;64.23
75455;BME280;64035;48.358;2.122;2023-02-28T04:41:46;101772.69;;;0.34;64.67
75455;BME280;64035;48.358;2.122;2023-02-28T04:42:49;101770.00;;;0.33;64.24
75455;BME280;64035;48.358;2.122;2023-02-28T04:43:52;101770.00;;;0.33;64.06
75455;BME280;64035;48.358;2.122;2023-02-28T04:44:55;101769.09;;;0.32;63.90
75455;BME280;64035;48.358;2.122;2023-02-28T04:46:02;101772.34;;;0.31;64.32
75455;BME280;64035;48.358;2.122;2023-02-28T04:47:06;101771.44;;;0.31;64.27
75455;BME280;64035;48.358;2.122;2023-02-28T04:48:09;101775.41;;;0.29;64.68
75455;BME280;64035;48.358;2.122;2023-02-28T04:49:12;101773.66;;;0.28;63.82
75455;BME280;64035;48.358;2.122;2023-02-28T04:50:15;101771.84;;;0.27;64.87
75455;BME280;64035;48.358;2.122;2023-02-28T04:51:19;101773.31;;;0.25;63.93
75455;BME280;64035;48.358;2.122;2023-02-28T04:52:22;101775.81;;;0.25;64.23
75455;BME280;64035;48.358;2.122;2023-02-28T04:53:25;101779.78;;;0.23;63.26
75455;BME280;64035;48.358;2.122;2023-02-28T04:54:28;101779.06;;;0.24;63.79
75455;BME280;64035;48.358;2.122;2023-02-28T04:55:32;101783.19;;;0.23;63.67
75455;BME280;64035;48.358;2.122;2023-02-28T04:56:35;101776.22;;;0.21;64.42
75455;BME280;64035;48.358;2.122;2023-02-28T04:57:38;101778.88;;;0.22;63.35
75455;BME280;64035;48.358;2.122;2023-02-28T04:58:42;101782.88;;;0.20;63.51
75455;BME280;64035;48.358;2.122;2023-02-28T04:59:45;101779.28;;;0.18;63.24
75455;BME280;64035;48.358;2.122;2023-02-28T05:00:52;101786.84;;;0.18;63.76
75455;BME280;64035;48.358;2.122;2023-02-28T05:01:55;101786.84;;;0.18;63.50
75455;BME280;64035;48.358;2.122;2023-02-28T05:02:58;101792.59;;;0.17;64.43
75455;BME280;64035;48.358;2.122;2023-02-28T05:04:03;101781.44;;;0.15;64.45
75455;BME280;64035;48.358;2.122;2023-02-28T05:05:06;101782.22;;;0.14;63.92
75455;BME280;64035;48.358;2.122;2023-02-28T05:06:11;101789.34;;;0.18;64.92
75455;BME280;64035;48.358;2.122;2023-02-28T05:07:14;101783.97;;;0.15;64.40
75455;BME280;64035;48.358;2.122;2023-02-28T05:08:17;101785.59;;;0.15;65.02
75455;BME280;64035;48.358;2.122;2023-02-28T05:09:20;101789.75;;;0.14;65.56
75455;BME280;64035;48.358;2.122;2023-02-28T05:10:23;101790.47;;;0.13;65.83
75455;BME280;64035;48.358;2.122;2023-02-28T05:11:32;101788.69;;;0.12;66.35
75455;BME280;64035;48.358;2.122;2023-02-28T05:12:38;101793.72;;;0.12;65.54
75455;BME280;64035;48.358;2.122;2023-02-28T05:13:41;101796.25;;;0.12;65.39
75455;BME280;64035;48.358;2.122;2023-02-28T05:14:45;101795.16;;;0.10;64.49
75455;BME280;64035;48.358;2.122;2023-02-28T05:15:48;101792.47;;;0.09;65.35
75455;BME280;64035;48.358;2.122;2023-02-28T05:16:51;101797.69;;;0.10;65.61
75455;BME280;64035;48.358;2.122;2023-02-28T05:17:54;101795.16;;;0.10;65.48
75455;BME280;64035;48.358;2.122;2023-02-28T05:18:57;101796.78;;;0.10;65.62
75455;BME280;64035;48.358;2.122;2023-02-28T05:19:59;101796.59;;;0.08;65.14
75455;BME280;64035;48.358;2.122;2023-02-28T05:21:03;101796.59;;;0.08;65.08
75455;BME280;64035;48.358;2.122;2023-02-28T05:22:13;101797.38;;;0.07;64.83
75455;BME280;64035;48.358;2.122;2023-02-28T05:23:17;101798.97;;;0.07;65.48
75455;BME280;64035;48.358;2.122;2023-02-28T05:24:22;101793.03;;;0.06;64.73
75455;BME280;64035;48.358;2.122;2023-02-28T05:25:26;101794.66;;;0.06;65.49
75455;BME280;64035;48.358;2.122;2023-02-28T05:26:29;101793.59;;;0.04;64.93
75455;BME280;64035;48.358;2.122;2023-02-28T05:27:32;101798.44;;;0.02;65.29
75455;BME280;64035;48.358;2.122;2023-02-28T05:28:36;101792.50;;;0.02;64.24
75455;BME280;64035;48.358;2.122;2023-02-28T05:29:39;101799.16;;;0.01;64.40
75455;BME280;64035;48.358;2.122;2023-02-28T05:30:44;101796.50;;;-0.01;64.92
75455;BME280;64035;48.358;2.122;2023-02-28T05:31:47;101810.00;;;0.00;65.24
75455;BME280;64035;48.358;2.122;2023-02-28T05:32:51;101808.19;;;-0.01;65.19
75455;BME280;64035;48.358;2.122;2023-02-28T05:33:54;101804.59;;;-0.03;64.86
75455;BME280;64035;48.358;2.122;2023-02-28T05:34:58;101809.09;;;-0.01;64.92
75455;BME280;64035;48.358;2.122;2023-02-28T05:36:00;101802.97;;;-0.03;64.99
75455;BME280;64035;48.358;2.122;2023-02-28T05:37:05;101795.25;;;-0.04;65.58
75455;BME280;64035;48.358;2.122;2023-02-28T05:38:08;101803.69;;;-0.04;65.86
75455;BME280;64035;48.358;2.122;2023-02-28T05:39:11;101803.53;;;-0.05;65.79
75455;BME280;64035;48.358;2.122;2023-02-28T05:40:15;101806.03;;;-0.05;65.18
75455;BME280;64035;48.358;2.122;2023-02-28T05:41:19;101805.16;;;-0.06;65.66
75455;BME280;64035;48.358;2.122;2023-02-28T05:42:22;101803.34;;;-0.07;64.82
75455;BME280;64035;48.358;2.122;2023-02-28T05:43:25;101806.75;;;-0.06;65.51
75455;BME280;64035;48.358;2.122;2023-02-28T05:44:29;101798.16;;;-0.08;64.69
75455;BME280;64035;48.358;2.122;2023-02-28T05:45:32;101799.94;;;-0.07;64.99
75455;BME280;64035;48.358;2.122;2023-02-28T05:46:35;101802.31;;;-0.09;65.27
75455;BME280;64035;48.358;2.122;2023-02-28T05:47:38;101797.41;;;-0.07;65.62
75455;BME280;64035;48.358;2.122;2023-02-28T05:48:42;101798.91;;;-0.09;64.92
75455;BME280;64035;48.358;2.122;2023-02-28T05:49:45;101797.81;;;-0.11;65.32
75455;BME280;64035;48.358;2.122;2023-02-28T05:50:48;101804.66;;;-0.10;65.33
75455;BME280;64035;48.358;2.122;2023-02-28T05:51:51;101801.22;;;-0.11;65.41
75455;BME280;64035;48.358;2.122;2023-02-28T05:52:54;101805.91;;;-0.14;65.07
75455;BME280;64035;48.358;2.122;2023-02-28T05:54:01;101803.56;;;-0.12;65.22
75455;BME280;64035;48.358;2.122;2023-02-28T05:55:04;101798.34;;;-0.14;65.05
75455;BME280;64035;48.358;2.122;2023-02-28T05:56:07;101793.31;;;-0.14;65.16
75455;BME280;64035;48.358;2.122;2023-02-28T05:57:10;101804.47;;;-0.12;65.09
75455;BME280;64035;48.358;2.122;2023-02-28T05:58:13;101805.91;;;-0.14;66.02
75455;BME280;64035;48.358;2.122;2023-02-28T05:59:16;101809.19;;;-0.15;65.66
75455;BME280;64035;48.358;2.122;2023-02-28T06:00:19;101799.25;;;-0.13;66.22
75455;BME280;64035;48.358;2.122;2023-02-28T06:01:37;101807.69;;;-0.13;65.17
75455;BME280;64035;48.358;2.122;2023-02-28T06:02:40;101803.25;;;-0.15;65.57
75455;BME280;64035;48.358;2.122;2023-02-28T06:03:43;101806.47;;;-0.16;66.09
75455;BME280;64035;48.358;2.122;2023-02-28T06:04:46;101801.28;;;-0.18;65.59
75455;BME280;64035;48.358;2.122;2023-02-28T06:05:49;101806.47;;;-0.16;65.60
75455;BME280;64035;48.358;2.122;2023-02-28T06:06:53;101808.81;;;-0.18;65.15
75455;BME280;64035;48.358;2.122;2023-02-28T06:07:56;101810.44;;;-0.18;65.70
75455;BME280;64035;48.358;2.122;2023-02-28T06:08:59;101812.06;;;-0.19;65.60
75455;BME280;64035;48.358;2.122;2023-02-28T06:10:03;101812.94;;;-0.18;65.69
75455;BME280;64035;48.358;2.122;2023-02-28T06:11:06;101814.56;;;-0.19;66.76
75455;BME280;64035;48.358;2.122;2023-02-28T06:12:09;101815.47;;;-0.18;67.50
75455;BME280;64035;48.358;2.122;2023-02-28T06:13:13;101813.66;;;-0.19;66.71
75455;BME280;64035;48.358;2.122;2023-02-28T06:14:19;101818.69;;;-0.19;66.73
75455;BME280;64035;48.358;2.122;2023-02-28T06:15:22;101815.88;;;-0.22;66.75
75455;BME280;64035;48.358;2.122;2023-02-28T06:16:27;101817.63;;;-0.21;67.13
75455;BME280;64035;48.358;2.122;2023-02-28T06:17:30;101818.69;;;-0.19;66.67
75455;BME280;64035;48.358;2.122;2023-02-28T06:18:33;101821.78;;;-0.22;66.40
75455;BME280;64035;48.358;2.122;2023-02-28T06:19:37;101824.44;;;-0.20;66.54